createdAt,value
2017-08-22T00:02:23.260Z,60.10
2017-08-22T00:04:50.782Z,60.30
2017-08-22T00:07:18.301Z,59.90
2017-08-22T00:09:45.827Z,60.40
2017-08-22T00:12:13.355Z,60.40
2017-08-22T00:14:40.910Z,60.90
2017-08-22T00:17:08.450Z,60.60
2017-08-22T00:19:35.975Z,60.90
2017-08-22T00:22:03.504Z,61.30
2017-08-22T00:24:31.034Z,60.30
2017-08-22T00:26:58.599Z,60.10
2017-08-22T00:29:26.122Z,60.10
2017-08-22T00:31:53.649Z,60.70
2017-08-22T00:34:21.170Z,61.00
2017-08-22T00:36:48.693Z,60.90
2017-08-22T00:39:16.250Z,60.50
2017-08-22T00:41:43.769Z,60.30
2017-08-22T00:44:11.294Z,59.60
2017-08-22T00:46:38.809Z,59.30
2017-08-22T00:49:06.327Z,59.60
2017-08-22T00:51:33.882Z,59.90
2017-08-22T00:54:01.410Z,60.10
2017-08-22T00:56:28.940Z,59.80
2017-08-22T00:58:56.457Z,59.60
2017-08-22T01:01:23.991Z,59.60
2017-08-22T01:03:51.554Z,59.20
2017-08-22T01:06:19.101Z,59.00
2017-08-22T01:08:46.627Z,59.70
2017-08-22T01:11:14.152Z,60.40
2017-08-22T01:13:41.705Z,60.50
2017-08-22T01:16:09.253Z,60.80
2017-08-22T01:18:36.786Z,60.30
2017-08-22T01:21:04.333Z,60.00
2017-08-22T01:23:31.864Z,60.60
2017-08-22T01:25:59.394Z,60.70
2017-08-22T01:28:26.956Z,60.00
2017-08-22T01:30:54.482Z,60.50
2017-08-22T01:33:22.017Z,60.50
2017-08-22T01:35:49.549Z,60.20
2017-08-22T01:38:17.086Z,60.40
2017-08-22T01:40:45.001Z,60.50
2017-08-22T01:43:12.537Z,61.30
2017-08-22T01:45:40.061Z,61.80
2017-08-22T01:48:07.587Z,62.30
2017-08-22T01:50:35.117Z,61.10
2017-08-22T01:53:02.684Z,60.90
2017-08-22T01:55:30.214Z,61.20
2017-08-22T01:57:57.746Z,61.00
2017-08-22T02:00:25.266Z,60.60
2017-08-22T02:02:52.790Z,60.50
2017-08-22T02:05:20.342Z,61.40
2017-08-22T02:07:47.862Z,62.60
2017-08-22T02:10:15.391Z,62.80
2017-08-22T02:12:42.914Z,62.60
2017-08-22T02:15:10.430Z,62.20
2017-08-22T02:17:37.982Z,61.80
2017-08-22T02:20:05.510Z,61.90
2017-08-22T02:22:33.102Z,63.20
2017-08-22T02:25:00.626Z,62.70
2017-08-22T02:27:28.159Z,63.60
2017-08-22T02:29:55.982Z,63.60
2017-08-22T02:32:23.503Z,64.00
2017-08-22T02:34:51.026Z,63.50
2017-08-22T02:37:18.550Z,64.10
2017-08-22T02:39:46.078Z,63.80
2017-08-22T02:42:13.626Z,63.10
2017-08-22T02:44:41.146Z,62.60
2017-08-22T02:47:08.678Z,62.30
2017-08-22T02:49:36.202Z,62.00
2017-08-22T02:52:03.726Z,61.70
2017-08-22T02:54:31.278Z,61.70
2017-08-22T02:56:58.798Z,62.20
2017-08-22T02:59:26.326Z,62.40
2017-08-22T03:01:53.851Z,61.80
2017-08-22T03:04:21.386Z,61.90
2017-08-22T03:06:48.941Z,61.70
2017-08-22T03:09:16.461Z,61.40
2017-08-22T03:11:43.977Z,62.80
2017-08-22T03:14:11.501Z,63.30
2017-08-22T03:16:39.023Z,63.60
2017-08-22T03:19:06.569Z,64.30
2017-08-22T03:21:34.088Z,65.30
2017-08-22T03:24:01.606Z,65.50
2017-08-22T03:26:29.133Z,65.50
2017-08-22T03:28:56.662Z,65.00
2017-08-22T03:31:24.219Z,64.80
2017-08-22T03:33:51.746Z,64.60
2017-08-22T03:36:19.269Z,65.00
2017-08-22T03:38:46.838Z,64.70
2017-08-22T03:41:14.366Z,64.80
2017-08-22T03:43:41.925Z,65.30
2017-08-22T03:46:09.458Z,65.50
2017-08-22T03:48:36.994Z,65.50
2017-08-22T03:51:04.544Z,66.10
2017-08-22T03:53:32.846Z,66.00
2017-08-22T03:56:00.404Z,66.00
2017-08-22T03:58:27.934Z,65.30
2017-08-22T04:00:55.463Z,65.90
2017-08-22T04:03:22.991Z,66.90
2017-08-22T04:05:50.562Z,66.30
2017-08-22T04:08:18.113Z,67.20
2017-08-22T04:10:45.642Z,68.10
2017-08-22T04:13:13.170Z,68.50
2017-08-22T04:15:40.701Z,68.60
2017-08-22T04:18:08.227Z,68.70
2017-08-22T04:20:35.782Z,69.00
2017-08-22T04:23:03.314Z,68.20
2017-08-22T04:25:30.847Z,67.80
2017-08-22T04:27:58.371Z,68.60
2017-08-22T04:30:25.905Z,69.80
2017-08-22T04:32:53.450Z,70.50
2017-08-22T04:35:20.977Z,70.50
2017-08-22T04:37:48.502Z,69.10
2017-08-22T04:40:16.033Z,67.60
2017-08-22T04:42:43.562Z,66.90
2017-08-22T04:45:11.117Z,68.70
2017-08-22T04:47:38.640Z,68.90
2017-08-22T04:50:06.165Z,68.40
2017-08-22T04:52:33.697Z,68.30
2017-08-22T04:55:01.226Z,68.00
2017-08-22T04:57:28.990Z,67.50
2017-08-22T04:59:56.517Z,69.20
2017-08-22T05:02:24.047Z,69.60
2017-08-22T05:04:51.574Z,69.60
2017-08-22T05:07:19.101Z,69.10
2017-08-22T05:09:46.645Z,68.70
2017-08-22T05:12:14.182Z,67.70
2017-08-22T05:14:41.710Z,67.70
2017-08-22T05:17:09.462Z,67.60
2017-08-22T05:19:36.989Z,68.10
2017-08-22T05:22:04.545Z,66.80
2017-08-22T05:24:32.074Z,65.70
2017-08-22T05:26:59.591Z,65.50
2017-08-22T05:29:27.114Z,66.90
2017-08-22T05:31:54.643Z,67.10
2017-08-22T05:34:22.189Z,67.10
2017-08-22T05:36:49.717Z,66.80
2017-08-22T05:39:17.250Z,67.90
2017-08-22T05:41:44.777Z,68.50
2017-08-22T05:44:12.308Z,68.80
2017-08-22T05:46:39.858Z,68.30
2017-08-22T05:49:07.388Z,67.70
2017-08-22T05:51:34.922Z,68.40
2017-08-22T05:54:02.446Z,68.20
2017-08-22T05:56:29.974Z,67.70
2017-08-22T05:58:57.542Z,67.80
2017-08-22T06:01:25.070Z,68.10
2017-08-22T06:03:52.589Z,67.90
2017-08-22T06:06:20.111Z,68.20
2017-08-22T06:08:47.646Z,68.10
2017-08-22T06:11:15.194Z,67.10
2017-08-22T06:13:42.730Z,66.30
2017-08-22T06:16:10.257Z,66.30
2017-08-22T06:18:37.777Z,65.20
2017-08-22T06:21:05.319Z,64.50
2017-08-22T06:23:32.876Z,63.70
2017-08-22T06:26:00.393Z,63.70
2017-08-22T06:28:27.918Z,62.70
2017-08-22T06:30:55.449Z,61.00
2017-08-22T06:33:22.969Z,61.10
2017-08-22T06:35:50.519Z,61.90
2017-08-22T06:38:18.046Z,61.10
2017-08-22T06:40:45.574Z,59.90
2017-08-22T06:43:13.100Z,58.80
2017-08-22T06:45:40.622Z,59.00
2017-08-22T06:48:08.174Z,60.20
2017-08-22T06:50:35.705Z,61.00
2017-08-22T06:53:03.325Z,61.20
2017-08-22T06:55:30.887Z,61.00
2017-08-22T06:57:58.406Z,59.70
2017-08-22T07:00:25.951Z,59.10
2017-08-22T07:02:53.480Z,58.50
2017-08-22T07:05:20.993Z,58.30
2017-08-22T07:07:48.517Z,57.10
2017-08-22T07:10:16.042Z,56.10
2017-08-22T07:12:43.595Z,55.60
2017-08-22T07:15:11.132Z,54.80
2017-08-22T07:17:38.654Z,54.80
2017-08-22T07:20:06.183Z,53.40
2017-08-22T07:22:33.710Z,53.40
2017-08-22T07:25:01.257Z,54.10
2017-08-22T07:27:28.790Z,54.60
2017-08-22T07:29:56.309Z,54.00
2017-08-22T07:32:23.833Z,53.50
2017-08-22T07:34:51.409Z,52.70
2017-08-22T07:37:18.970Z,53.00
2017-08-22T07:39:46.493Z,53.70
2017-08-22T07:42:14.018Z,53.30
2017-08-22T07:44:41.545Z,52.50
2017-08-22T07:47:09.067Z,52.70
2017-08-22T07:49:36.594Z,52.30
2017-08-22T07:52:04.118Z,51.40
2017-08-22T07:54:31.647Z,50.60
2017-08-22T07:56:59.169Z,51.30
2017-08-22T07:59:26.692Z,50.70
2017-08-22T08:01:54.214Z,50.20
2017-08-22T08:04:21.747Z,49.90
2017-08-22T08:06:49.272Z,50.60
2017-08-22T08:09:16.790Z,50.10
2017-08-22T08:11:44.333Z,49.80
2017-08-22T08:14:11.890Z,48.10
2017-08-22T08:16:39.417Z,48.70
2017-08-22T08:19:06.967Z,48.50
2017-08-22T08:21:34.490Z,48.00
2017-08-22T08:24:02.012Z,48.10
2017-08-22T08:26:29.558Z,47.50
2017-08-22T08:28:57.105Z,49.10
2017-08-22T08:31:24.631Z,49.90
2017-08-22T08:33:52.193Z,50.90
2017-08-22T08:36:19.727Z,51.00
2017-08-22T08:38:47.260Z,51.30
2017-08-22T08:41:14.809Z,51.90
2017-08-22T08:43:42.330Z,51.30
2017-08-22T08:46:09.846Z,50.70
2017-08-22T08:48:37.407Z,49.60
2017-08-22T08:51:04.931Z,50.50
2017-08-22T08:53:32.461Z,49.90
2017-08-22T08:55:59.986Z,50.00
2017-08-22T08:58:27.511Z,49.40
2017-08-22T09:00:55.070Z,51.70
2017-08-22T09:03:22.609Z,51.20
2017-08-22T09:05:50.137Z,50.80
2017-08-22T09:08:17.662Z,50.30
2017-08-22T09:10:45.210Z,48.70
2017-08-22T09:13:12.758Z,47.50
2017-08-22T09:15:40.278Z,45.90
2017-08-22T09:18:07.806Z,46.00
2017-08-22T09:20:35.332Z,44.80
2017-08-22T09:23:02.862Z,44.80
2017-08-22T09:25:30.417Z,44.60
2017-08-22T09:27:58.022Z,43.90
2017-08-22T09:30:25.548Z,42.70
2017-08-22T09:32:53.082Z,42.80
2017-08-22T09:35:20.604Z,44.10
2017-08-22T09:37:48.154Z,44.00
2017-08-22T09:40:15.687Z,43.70
2017-08-22T09:42:43.218Z,43.20
2017-08-22T09:45:10.781Z,42.30
2017-08-22T09:47:38.398Z,42.40
2017-08-22T09:50:05.949Z,42.40
2017-08-22T09:52:33.472Z,41.50
2017-08-22T09:55:01.042Z,41.50
2017-08-22T09:57:28.557Z,40.60
2017-08-22T09:59:56.074Z,40.30
2017-08-22T10:02:23.627Z,40.10
2017-08-22T10:04:51.157Z,39.70
2017-08-22T10:07:18.682Z,38.30
2017-08-22T10:09:46.213Z,38.00
2017-08-22T10:12:13.765Z,38.60
2017-08-22T10:14:41.318Z,37.40
2017-08-22T10:17:08.840Z,38.00
2017-08-22T10:19:36.371Z,38.00
2017-08-22T10:22:03.894Z,37.30
2017-08-22T10:24:31.419Z,36.60
2017-08-22T10:26:58.965Z,36.50
2017-08-22T10:29:26.490Z,36.80
2017-08-22T10:31:54.030Z,36.50
2017-08-22T10:34:21.553Z,36.50
2017-08-22T10:36:49.074Z,36.10
2017-08-22T10:39:16.628Z,36.30
2017-08-22T10:41:44.153Z,37.00
2017-08-22T10:44:11.678Z,36.30
2017-08-22T10:46:39.226Z,36.50
2017-08-22T10:49:06.800Z,35.80
2017-08-22T10:51:34.362Z,34.00
2017-08-22T10:54:01.894Z,35.20
2017-08-22T10:56:29.425Z,34.60
2017-08-22T10:58:56.946Z,33.90
2017-08-22T11:01:24.466Z,35.50
2017-08-22T11:03:52.021Z,35.40
2017-08-22T11:06:19.549Z,35.50
2017-08-22T11:08:47.073Z,35.80
2017-08-22T11:11:14.621Z,35.20
2017-08-22T11:13:42.141Z,35.00
2017-08-22T11:16:09.690Z,33.00
2017-08-22T11:18:37.215Z,33.20
2017-08-22T11:21:04.737Z,32.90
2017-08-22T11:23:32.281Z,31.80
2017-08-22T11:25:59.805Z,31.30
2017-08-22T11:28:27.354Z,31.20
2017-08-22T11:30:54.874Z,31.40
2017-08-22T11:33:22.394Z,30.30
2017-08-22T11:35:49.919Z,30.90
2017-08-22T11:38:17.443Z,30.40
2017-08-22T11:40:44.986Z,29.70
2017-08-22T11:43:12.507Z,29.80
2017-08-22T11:45:40.021Z,30.50
2017-08-22T11:48:07.537Z,31.20
2017-08-22T11:50:35.062Z,29.50
2017-08-22T11:53:02.606Z,29.10
2017-08-22T11:55:30.137Z,28.60
2017-08-22T11:57:57.663Z,28.30
2017-08-22T12:00:25.186Z,28.20
2017-08-22T12:02:52.736Z,29.20
2017-08-22T12:05:20.290Z,29.30
2017-08-22T12:07:47.807Z,28.90
2017-08-22T12:10:15.329Z,28.60
2017-08-22T12:12:42.860Z,28.20
2017-08-22T12:15:10.383Z,27.70
2017-08-22T12:17:37.934Z,27.00
2017-08-22T12:20:05.457Z,26.00
2017-08-22T12:22:32.990Z,25.80
2017-08-22T12:25:00.510Z,25.50
2017-08-22T12:27:28.049Z,25.70
2017-08-22T12:29:55.652Z,24.70
2017-08-22T12:32:23.178Z,25.30
2017-08-22T12:34:50.713Z,25.10
2017-08-22T12:37:18.238Z,25.50
2017-08-22T12:39:45.762Z,25.20
2017-08-22T12:42:13.320Z,26.90
2017-08-22T12:44:40.837Z,27.90
2017-08-22T12:47:08.362Z,28.70
2017-08-22T12:49:35.886Z,28.70
2017-08-22T12:52:03.413Z,28.70
2017-08-22T12:54:30.962Z,27.90
2017-08-22T12:56:58.537Z,27.30
2017-08-22T12:59:26.062Z,27.00
2017-08-22T13:01:53.590Z,26.90
2017-08-22T13:04:21.109Z,27.30
2017-08-22T13:06:48.678Z,27.60
2017-08-22T13:09:16.206Z,27.40
2017-08-22T13:11:43.728Z,25.20
2017-08-22T13:14:11.257Z,23.10
2017-08-22T13:16:38.777Z,22.00
2017-08-22T13:19:06.334Z,21.10
2017-08-22T13:21:33.857Z,20.40
2017-08-22T13:24:01.389Z,20.50
2017-08-22T13:26:28.918Z,19.60
2017-08-22T13:28:56.458Z,18.80
2017-08-22T13:31:24.010Z,18.60
2017-08-22T13:33:51.535Z,18.50
2017-08-22T13:36:19.082Z,18.50
2017-08-22T13:39:28.261Z,17.90
2017-08-22T13:41:55.802Z,18.20
2017-08-22T13:44:23.359Z,18.20
2017-08-22T13:46:50.888Z,17.40
2017-08-22T13:49:18.409Z,17.60
2017-08-22T13:51:45.953Z,18.60
2017-08-22T13:54:13.474Z,19.70
2017-08-22T13:56:40.995Z,20.10
2017-08-22T13:59:08.550Z,20.90
2017-08-22T14:01:36.162Z,20.20
2017-08-22T14:04:03.694Z,19.80
2017-08-22T14:06:31.221Z,19.60
2017-08-22T14:08:58.740Z,19.80
2017-08-22T14:11:26.287Z,18.70
2017-08-22T14:13:53.810Z,18.20
2017-08-22T14:16:21.333Z,17.10
2017-08-22T14:18:48.862Z,16.80
2017-08-22T14:21:16.381Z,16.60
2017-08-22T14:23:43.929Z,17.10
2017-08-22T14:26:11.526Z,16.90
2017-08-22T14:28:39.046Z,16.40
2017-08-22T14:31:07.336Z,16.20
2017-08-22T14:33:34.859Z,16.10
2017-08-22T14:36:02.413Z,16.30
2017-08-22T14:38:29.939Z,16.20
2017-08-22T14:40:57.461Z,15.90
2017-08-22T14:43:25.002Z,15.90
2017-08-22T14:45:52.524Z,16.10
2017-08-22T14:48:20.074Z,16.10
2017-08-22T14:50:47.595Z,15.50
2017-08-22T14:53:15.121Z,15.30
2017-08-22T14:55:42.642Z,15.50
2017-08-22T14:58:10.165Z,15.60
2017-08-22T15:00:37.705Z,15.70
2017-08-22T15:03:05.222Z,15.80
2017-08-22T15:05:32.749Z,15.70
2017-08-22T15:08:00.269Z,15.60
2017-08-22T15:10:27.791Z,15.70
2017-08-22T15:12:55.338Z,15.70
2017-08-22T15:15:22.907Z,15.50
2017-08-22T15:17:50.433Z,15.90
2017-08-22T15:20:18.026Z,16.20
2017-08-22T15:22:45.545Z,17.00
2017-08-22T15:25:13.090Z,17.80
2017-08-22T15:27:40.615Z,18.20
2017-08-22T15:30:08.134Z,18.00
2017-08-22T15:32:35.664Z,18.00
2017-08-22T15:35:03.186Z,17.20
2017-08-22T15:37:30.734Z,17.50
2017-08-22T15:39:58.263Z,17.60
2017-08-22T15:42:26.553Z,18.00
2017-08-22T15:44:54.073Z,17.90
2017-08-22T15:47:21.597Z,18.50
2017-08-22T15:49:49.153Z,19.50
2017-08-22T15:52:16.682Z,19.90
2017-08-22T15:54:44.205Z,20.00
2017-08-22T15:57:11.730Z,19.70
2017-08-22T15:59:39.245Z,19.30
2017-08-22T16:02:06.800Z,19.60
2017-08-22T16:04:34.326Z,19.20
2017-08-22T16:07:01.866Z,19.50
2017-08-22T16:09:29.383Z,19.60
2017-08-22T16:11:56.910Z,19.90
2017-08-22T16:14:24.486Z,20.10
2017-08-22T16:16:52.026Z,20.90
2017-08-22T16:19:19.541Z,22.00
2017-08-22T16:21:47.062Z,22.40
2017-08-22T16:24:14.578Z,22.90
2017-08-22T16:26:42.131Z,23.80
2017-08-22T16:29:09.650Z,25.60
2017-08-22T16:31:37.165Z,26.00
2017-08-22T16:34:04.683Z,26.60
2017-08-22T16:36:32.202Z,27.00
2017-08-22T16:38:59.770Z,27.30
2017-08-22T16:41:27.290Z,28.20
2017-08-22T16:43:54.810Z,28.40
2017-08-22T16:46:22.326Z,28.50
2017-08-22T16:48:49.849Z,28.60
2017-08-22T16:51:17.391Z,29.60
2017-08-22T16:53:44.919Z,30.30
2017-08-22T16:56:12.446Z,30.00
2017-08-22T16:58:40.072Z,30.00
2017-08-22T17:01:07.590Z,30.10
2017-08-22T17:03:35.144Z,31.00
2017-08-22T17:06:02.662Z,31.00
2017-08-22T17:08:30.185Z,31.50
2017-08-22T17:10:57.709Z,31.50
2017-08-22T17:13:25.231Z,31.70
2017-08-22T17:15:52.775Z,32.20
2017-08-22T17:18:20.294Z,32.90
2017-08-22T17:20:47.814Z,33.30
2017-08-22T17:23:15.328Z,33.90
2017-08-22T17:25:42.914Z,33.90
2017-08-22T17:28:10.470Z,34.00
2017-08-22T17:30:37.993Z,34.20
2017-08-22T17:33:05.526Z,34.50
2017-08-22T17:35:33.158Z,35.00
2017-08-22T17:38:00.677Z,35.10
2017-08-22T17:40:28.985Z,35.20
2017-08-22T17:42:56.517Z,35.10
2017-08-22T17:45:24.809Z,35.80
2017-08-22T17:47:52.339Z,35.80
2017-08-22T17:50:19.858Z,36.30
2017-08-22T17:52:47.497Z,36.30
2017-08-22T17:55:15.017Z,36.60
2017-08-22T17:57:42.533Z,37.10
2017-08-22T18:00:10.049Z,37.40
2017-08-22T18:02:37.598Z,37.70
2017-08-22T18:05:05.147Z,38.00
2017-08-22T18:07:32.673Z,38.40
2017-08-22T18:10:00.190Z,38.40
2017-08-22T18:12:27.713Z,38.70
2017-08-22T18:14:55.238Z,38.90
2017-08-22T18:17:22.788Z,39.10
2017-08-22T18:19:50.309Z,39.40
2017-08-22T18:22:17.969Z,39.20
2017-08-22T18:24:45.494Z,39.80
2017-08-22T18:27:13.013Z,40.20
2017-08-22T18:29:40.542Z,40.10
2017-08-22T18:32:08.067Z,40.10
2017-08-22T18:34:35.611Z,40.30
2017-08-22T18:37:03.129Z,40.20
2017-08-22T18:39:30.654Z,40.20
2017-08-22T18:44:32.858Z,40.00
2017-08-22T18:47:00.408Z,40.00
2017-08-22T18:49:27.929Z,39.90
2017-08-22T18:51:55.454Z,40.10
2017-08-22T18:54:22.994Z,40.10
2017-08-22T18:56:50.529Z,40.30
2017-08-22T18:59:18.089Z,40.30
2017-08-22T19:01:45.617Z,40.20
2017-08-22T19:04:13.147Z,40.60
2017-08-22T19:06:40.664Z,40.90
2017-08-22T19:09:08.187Z,40.50
2017-08-22T19:11:35.738Z,41.20
2017-08-22T19:14:03.262Z,41.40
2017-08-22T19:16:30.789Z,41.20
2017-08-22T19:18:58.307Z,41.20
2017-08-22T19:21:25.829Z,41.70
2017-08-22T19:23:53.383Z,41.70
2017-08-22T19:26:20.910Z,42.10
2017-08-22T19:28:48.431Z,42.10
2017-08-22T19:31:15.950Z,42.40
2017-08-22T19:33:43.465Z,42.40
2017-08-22T19:36:11.009Z,42.50
2017-08-22T19:38:38.527Z,42.80
2017-08-22T19:41:06.829Z,42.90
2017-08-22T19:43:34.349Z,42.90
2017-08-22T19:46:01.866Z,43.20
2017-08-22T19:48:29.412Z,44.00
2017-08-22T19:50:56.945Z,43.40
2017-08-22T19:53:24.486Z,43.50
2017-08-22T19:55:52.009Z,43.40
2017-08-22T19:58:19.554Z,43.40
2017-08-22T20:00:47.093Z,43.50
2017-08-22T20:03:14.611Z,43.60
2017-08-22T20:05:42.134Z,43.70
2017-08-22T20:08:09.689Z,44.30
2017-08-22T20:10:37.278Z,43.90
2017-08-22T20:13:04.822Z,44.70
2017-08-22T20:15:32.367Z,45.00
2017-08-22T20:17:59.898Z,45.00
2017-08-22T20:20:27.417Z,45.40
2017-08-22T20:22:55.034Z,45.60
2017-08-22T20:25:22.589Z,45.40
2017-08-22T20:27:50.118Z,45.90
2017-08-22T20:30:17.646Z,46.80
2017-08-22T20:32:45.177Z,46.80
2017-08-22T20:35:12.697Z,46.50
2017-08-22T20:37:40.253Z,46.40
2017-08-22T20:40:07.777Z,46.60
2017-08-22T20:42:35.295Z,46.80
2017-08-22T20:45:02.826Z,46.90
2017-08-22T20:47:30.350Z,47.00
2017-08-22T20:49:57.899Z,47.00
2017-08-22T20:52:25.428Z,46.80
2017-08-22T20:54:52.949Z,47.20
2017-08-22T20:57:20.563Z,47.40
2017-08-22T20:59:48.086Z,47.40
2017-08-22T21:02:15.645Z,47.70
2017-08-22T21:04:43.229Z,47.50
2017-08-22T21:07:10.758Z,47.80
2017-08-22T21:09:38.300Z,47.40
2017-08-22T21:12:05.821Z,48.30
2017-08-22T21:14:33.382Z,48.20
2017-08-22T21:17:00.906Z,47.40
2017-08-22T21:19:28.435Z,47.30
2017-08-22T21:21:55.966Z,47.30
2017-08-22T21:24:24.258Z,47.80
2017-08-22T21:26:51.823Z,47.80
2017-08-22T21:29:19.353Z,48.30
2017-08-22T21:31:46.882Z,48.20
2017-08-22T21:34:14.418Z,48.00
2017-08-22T21:36:41.947Z,48.10
2017-08-22T21:39:09.494Z,48.60
2017-08-22T21:41:37.021Z,49.10
2017-08-22T21:44:04.541Z,48.70
2017-08-22T21:46:32.082Z,49.70
2017-08-22T21:48:59.605Z,50.00
2017-08-22T21:51:27.370Z,49.90
2017-08-22T21:53:54.899Z,49.90
2017-08-22T21:56:22.429Z,50.30
2017-08-22T21:58:50.729Z,50.40
2017-08-22T22:01:18.253Z,50.30
2017-08-22T22:03:45.873Z,50.80
2017-08-22T22:06:13.401Z,50.80
2017-08-22T22:08:40.930Z,50.40
2017-08-22T22:11:08.449Z,50.80
2017-08-22T22:13:35.973Z,51.10
2017-08-22T22:16:03.523Z,50.80
2017-08-22T22:18:31.051Z,50.50
2017-08-22T22:20:58.606Z,50.60
2017-08-22T22:23:26.133Z,50.30
2017-08-22T22:25:53.663Z,50.00
2017-08-22T22:28:21.215Z,49.50
2017-08-22T22:30:49.539Z,49.70
2017-08-22T22:33:17.066Z,49.60
2017-08-22T22:35:44.589Z,49.70
2017-08-22T22:38:12.113Z,49.70
2017-08-22T22:40:39.658Z,50.50
2017-08-22T22:43:07.182Z,50.70
2017-08-22T22:45:34.701Z,50.40
2017-08-22T22:48:02.334Z,50.40
2017-08-22T22:50:29.858Z,50.40
2017-08-22T22:52:58.169Z,50.50
2017-08-22T22:55:25.722Z,50.50
2017-08-22T22:57:53.239Z,51.20
2017-08-22T23:00:20.763Z,51.50
2017-08-22T23:02:48.284Z,51.70
2017-08-22T23:05:16.065Z,51.40
2017-08-22T23:07:43.594Z,51.90
2017-08-22T23:10:11.117Z,51.20
2017-08-22T23:12:38.632Z,50.90
2017-08-22T23:15:06.185Z,50.60
2017-08-22T23:17:33.728Z,50.90
2017-08-22T23:20:01.250Z,50.80
2017-08-22T23:22:28.766Z,51.00
2017-08-22T23:24:56.290Z,50.50
2017-08-22T23:27:23.818Z,50.40
2017-08-22T23:29:51.375Z,50.30
2017-08-22T23:32:18.898Z,49.80
2017-08-22T23:34:46.428Z,49.50
2017-08-22T23:37:14.713Z,49.70
2017-08-22T23:39:42.233Z,49.60
2017-08-22T23:42:09.792Z,49.90
2017-08-22T23:44:37.318Z,49.90
2017-08-22T23:47:04.841Z,50.00
2017-08-22T23:49:32.438Z,49.70
2017-08-22T23:51:59.957Z,49.40
2017-08-22T23:54:27.507Z,49.50
2017-08-22T23:56:55.025Z,49.20
2017-08-22T23:59:22.542Z,49.20
